Time;durP1;ratioP1;P1;durP2;ratioP2;P2;SDS_P1;SDS_P2;PMS_P1;PMS_P2;Temp;Humidity;BMP_temperature;BMP_pressure;BME280_temperature;BME280_humidity;BME280_pressure;Samples;Min_cycle;Max_cycle;Signal;HPM_P1;HPM_P2
2022/08/31 00:04:27;;;;;;;12.20;4.10;;;26.50;99.90;;;;;;5003696;28;20052;-71
2022/08/31 00:06:53;;;;;;;10.10;4.95;;;26.50;99.90;;;;;;4984870;28;20037;-70
2022/08/31 00:09:18;;;;;;;9.98;4.15;;;26.40;99.90;;;;;;5005914;28;20045;-70
2022/08/31 00:11:45;;;;;;;12.00;4.40;;;26.40;99.90;;;;;;5004285;28;20125;-69
2022/08/31 00:14:10;;;;;;;8.55;3.85;;;26.40;99.90;;;;;;5006879;28;20061;-71
2022/08/31 00:16:39;;;;;;;9.25;4.75;;;26.40;99.90;;;;;;4996050;28;20118;-70
2022/08/31 00:19:05;;;;;;;10.13;4.65;;;26.40;99.90;;;;;;4976078;28;20524;-70
2022/08/31 00:21:31;;;;;;;9.38;3.67;;;26.40;99.90;;;;;;5002946;28;20039;-70
2022/08/31 00:23:57;;;;;;;15.20;4.63;;;26.30;99.90;;;;;;5002798;28;20030;-71
2022/08/31 00:26:24;;;;;;;11.35;4.95;;;26.30;99.90;;;;;;4985945;28;20073;-70
2022/08/31 00:28:51;;;;;;;9.70;4.68;;;26.30;99.90;;;;;;5000205;28;20030;-70
2022/08/31 00:31:18;;;;;;;9.73;4.43;;;26.20;99.90;;;;;;4987249;28;20026;-70
2022/08/31 00:33:51;;;;;;;11.05;4.78;;;26.10;99.90;;;;;;4985099;28;20029;-69
2022/08/31 00:36:20;;;;;;;9.02;4.70;;;26.10;99.90;;;;;;4985587;28;20053;-70
2022/08/31 00:38:50;;;;;;;11.32;4.60;;;26.00;99.90;;;;;;4985399;28;20145;-71
2022/08/31 00:41:19;;;;;;;11.90;4.72;;;26.10;99.90;;;;;;5000281;28;20126;-70
2022/08/31 00:43:47;;;;;;;11.65;4.57;;;26.00;99.90;;;;;;5000786;28;20033;-70
2022/08/31 00:46:18;;;;;;;11.00;4.53;;;26.00;99.90;;;;;;4998524;28;20038;-71
2022/08/31 00:49:09;;;;;;;10.65;4.70;;;26.10;99.90;;;;;;4988253;28;20026;-71
2022/08/31 00:51:52;;;;;;;9.63;4.32;;;26.10;99.90;;;;;;5001313;28;20045;-70
2022/08/31 00:54:23;;;;;;;10.63;4.15;;;26.10;99.90;;;;;;5001221;28;20490;-71
2022/08/31 00:56:50;;;;;;;13.13;4.57;;;26.10;99.90;;;;;;5001078;28;20511;-70
2022/08/31 00:59:18;;;;;;;8.65;4.35;;;26.10;99.90;;;;;;5003393;28;20076;-71
2022/08/31 01:01:44;;;;;;;13.20;5.28;;;26.10;99.90;;;;;;4984040;28;20493;-70
2022/08/31 01:04:10;;;;;;;9.35;4.57;;;26.10;99.90;;;;;;5001028;28;20030;-69
2022/08/31 01:06:36;;;;;;;13.48;5.03;;;26.10;99.90;;;;;;5002252;28;20092;-70
2022/08/31 01:09:05;;;;;;;10.43;5.20;;;26.00;99.90;;;;;;4988840;28;20034;-70
2022/08/31 01:11:31;;;;;;;9.23;4.85;;;26.00;99.90;;;;;;4967666;28;20435;-70
2022/08/31 01:13:57;;;;;;;15.27;5.43;;;25.90;99.90;;;;;;4989301;28;20035;-70
2022/08/31 01:16:37;;;;;;;10.88;5.32;;;25.90;99.90;;;;;;5004743;28;20483;-70
2022/08/31 01:19:10;;;;;;;12.32;5.10;;;25.90;99.90;;;;;;4982853;28;20504;-71
2022/08/31 01:22:28;;;;;;;10.75;4.60;;;25.90;99.90;;;;;;5004460;28;20030;-72
2022/08/31 01:24:56;;;;;;;13.35;5.10;;;25.90;99.90;;;;;;4962635;28;20550;-70
2022/08/31 01:27:26;;;;;;;9.32;5.07;;;25.80;99.90;;;;;;4983218;28;20045;-70
2022/08/31 01:29:57;;;;;;;14.73;5.50;;;25.80;99.90;;;;;;4997867;28;20039;-70
2022/08/31 01:32:23;;;;;;;7.55;4.75;;;25.80;99.90;;;;;;5001804;28;20509;-70
2022/08/31 01:34:49;;;;;;;12.38;4.75;;;25.80;99.90;;;;;;4983472;28;20034;-71
2022/08/31 01:37:15;;;;;;;9.50;4.72;;;25.80;99.90;;;;;;5000200;28;20048;-70
2022/08/31 01:39:41;;;;;;;8.48;4.68;;;25.80;99.90;;;;;;5001783;28;20042;-70
2022/08/31 01:42:07;;;;;;;15.20;4.85;;;25.80;99.90;;;;;;4984786;28;20060;-69
2022/08/31 01:44:33;;;;;;;11.70;4.80;;;25.80;99.90;;;;;;4980563;28;20031;-69
2022/08/31 01:46:59;;;;;;;16.73;4.70;;;25.80;99.90;;;;;;4993068;28;20033;-71
2022/08/31 01:49:25;;;;;;;12.60;4.82;;;25.80;99.90;;;;;;5002426;28;20030;-71
2022/08/31 01:51:53;;;;;;;9.52;4.50;;;25.80;99.90;;;;;;5001296;28;20960;-71
2022/08/31 01:54:22;;;;;;;10.23;4.43;;;25.80;99.90;;;;;;4991068;28;20469;-70
2022/08/31 01:56:49;;;;;;;10.77;4.28;;;25.80;99.90;;;;;;4996961;28;20030;-69
2022/08/31 01:59:19;;;;;;;9.70;4.72;;;25.80;99.90;;;;;;5001191;28;20524;-70
2022/08/31 02:01:51;;;;;;;10.82;4.97;;;25.80;99.90;;;;;;4998065;28;20030;-70
2022/08/31 02:04:19;;;;;;;12.10;4.25;;;25.80;99.90;;;;;;5001661;28;20042;-70
2022/08/31 02:06:49;;;;;;;8.80;5.05;;;25.80;99.90;;;;;;5000687;28;20089;-71
2022/08/31 02:09:16;;;;;;;9.15;4.32;;;25.80;99.90;;;;;;4984188;28;20038;-70
2022/08/31 02:11:42;;;;;;;9.93;4.75;;;25.80;99.90;;;;;;5003844;28;20038;-70
2022/08/31 02:14:09;;;;;;;8.70;5.22;;;25.80;99.90;;;;;;5003147;28;20084;-69
2022/08/31 02:16:36;;;;;;;9.38;4.10;;;25.80;99.90;;;;;;4985890;28;20031;-71
2022/08/31 02:19:03;;;;;;;16.27;5.05;;;25.90;99.90;;;;;;5004787;28;20030;-69
2022/08/31 02:21:30;;;;;;;10.15;4.43;;;25.80;99.90;;;;;;4996795;28;20575;-70
2022/08/31 02:23:58;;;;;;;12.30;5.00;;;25.90;99.90;;;;;;5002029;28;20026;-71
2022/08/31 02:26:24;;;;;;;8.88;4.35;;;25.90;99.90;;;;;;4999177;28;20041;-70
2022/08/31 02:28:51;;;;;;;10.55;4.22;;;26.00;99.90;;;;;;4987067;28;20049;-71
2022/08/31 02:31:18;;;;;;;11.13;4.50;;;25.90;99.90;;;;;;4970143;28;20544;-69
2022/08/31 02:33:44;;;;;;;10.70;4.65;;;25.90;99.90;;;;;;5006465;28;20033;-71
2022/08/31 02:36:11;;;;;;;11.32;4.60;;;25.90;99.90;;;;;;4999188;28;20031;-71
2022/08/31 02:38:37;;;;;;;10.77;4.40;;;25.90;99.90;;;;;;4989285;28;20041;-70
2022/08/31 02:41:04;;;;;;;12.07;4.90;;;25.90;99.90;;;;;;5006498;28;20203;-70
2022/08/31 02:43:30;;;;;;;19.42;5.13;;;25.90;99.90;;;;;;5002211;28;20038;-71
2022/08/31 02:45:56;;;;;;;10.15;4.65;;;25.90;99.90;;;;;;4983461;28;20034;-69
2022/08/31 02:48:23;;;;;;;9.32;4.18;;;26.00;99.90;;;;;;4998029;28;20105;-70
2022/08/31 02:50:52;;;;;;;10.75;4.38;;;25.90;99.90;;;;;;5002093;28;20038;-71
2022/08/31 02:53:22;;;;;;;12.95;4.72;;;26.00;99.90;;;;;;4998685;28;20041;-69
2022/08/31 02:55:49;;;;;;;13.30;5.07;;;26.00;99.90;;;;;;4985284;28;20176;-71
2022/08/31 02:58:15;;;;;;;13.52;4.88;;;26.10;99.90;;;;;;5001785;28;20034;-69
2022/08/31 03:00:46;;;;;;;11.32;4.50;;;26.00;99.90;;;;;;4981674;28;20035;-71
2022/08/31 03:03:12;;;;;;;13.75;4.90;;;26.10;99.90;;;;;;4999191;28;20036;-69
2022/08/31 03:05:39;;;;;;;14.32;5.35;;;26.20;99.90;;;;;;4984294;28;20097;-70
2022/08/31 03:08:06;;;;;;;18.50;5.50;;;26.20;99.90;;;;;;4981888;28;20384;-70
2022/08/31 03:10:33;;;;;;;14.10;5.10;;;26.10;99.90;;;;;;5000360;28;20026;-71
2022/08/31 03:12:59;;;;;;;10.95;4.80;;;26.10;99.90;;;;;;4999137;28;20121;-70
2022/08/31 03:15:26;;;;;;;9.52;4.85;;;26.10;99.90;;;;;;4996556;28;20116;-71
2022/08/31 03:17:53;;;;;;;13.98;4.75;;;26.10;99.90;;;;;;4987895;28;20174;-69
2022/08/31 03:20:21;;;;;;;10.93;5.15;;;26.20;99.90;;;;;;4998463;28;20037;-70
2022/08/31 03:22:47;;;;;;;11.50;4.80;;;26.10;99.90;;;;;;4997955;28;20094;-70
2022/08/31 03:25:13;;;;;;;14.52;4.70;;;26.10;99.90;;;;;;4985787;28;20501;-70
2022/08/31 03:27:40;;;;;;;11.98;5.32;;;26.10;99.90;;;;;;5003075;28;20120;-70
2022/08/31 03:30:11;;;;;;;18.25;5.80;;;26.10;99.90;;;;;;4983397;28;20043;-70
2022/08/31 03:32:38;;;;;;;16.45;5.57;;;26.10;99.90;;;;;;4982316;28;20031;-70
2022/08/31 03:35:06;;;;;;;13.50;5.53;;;26.10;99.90;;;;;;4997529;28;20088;-72
2022/08/31 03:37:32;;;;;;;13.10;5.45;;;26.10;99.90;;;;;;4983327;28;20042;-71
2022/08/31 03:39:58;;;;;;;15.25;5.82;;;26.20;99.90;;;;;;4999440;28;20042;-70
2022/08/31 03:42:25;;;;;;;15.48;5.35;;;26.20;99.90;;;;;;4994054;28;20045;-70
2022/08/31 03:44:51;;;;;;;13.18;5.30;;;26.20;99.90;;;;;;4999228;28;20140;-71
2022/08/31 03:47:17;;;;;;;15.05;5.30;;;26.20;99.90;;;;;;4979492;28;20106;-71
2022/08/31 03:49:43;;;;;;;14.15;5.13;;;26.20;99.90;;;;;;5001139;28;20113;-69
2022/08/31 03:52:09;;;;;;;11.88;5.20;;;26.20;99.90;;;;;;4978846;28;20054;-70
2022/08/31 03:54:36;;;;;;;13.48;5.43;;;26.20;99.90;;;;;;4990008;28;20034;-69
2022/08/31 03:57:04;;;;;;;17.30;4.53;;;26.20;99.90;;;;;;4996801;28;20081;-70
2022/08/31 03:59:30;;;;;;;12.00;4.70;;;26.20;99.90;;;;;;4999401;28;20046;-70
2022/08/31 04:01:56;;;;;;;14.07;5.10;;;26.20;99.90;;;;;;4983125;28;20034;-70
2022/08/31 04:04:22;;;;;;;15.30;4.82;;;26.20;99.90;;;;;;4992729;28;20044;-69
2022/08/31 04:06:48;;;;;;;13.15;4.63;;;26.20;99.90;;;;;;5007501;28;20030;-69
2022/08/31 04:09:14;;;;;;;15.35;4.97;;;26.30;99.90;;;;;;4968673;28;20038;-71
2022/08/31 04:11:43;;;;;;;15.73;4.90;;;26.20;99.90;;;;;;4987621;28;20042;-70
2022/08/31 04:14:10;;;;;;;11.02;4.93;;;26.30;99.90;;;;;;4985145;28;20494;-70
2022/08/31 04:16:38;;;;;;;12.32;4.65;;;26.30;99.90;;;;;;5001393;28;20394;-70
2022/08/31 04:19:06;;;;;;;11.70;4.90;;;26.30;99.90;;;;;;4985426;28;20126;-69
2022/08/31 04:21:33;;;;;;;12.02;4.55;;;26.40;99.90;;;;;;5005523;28;20025;-71
2022/08/31 04:24:00;;;;;;;12.48;5.03;;;26.40;99.90;;;;;;5003463;28;20034;-70
2022/08/31 04:26:32;;;;;;;14.45;5.10;;;26.40;99.90;;;;;;4997136;28;20049;-70
2022/08/31 04:28:58;;;;;;;10.30;5.00;;;26.30;99.90;;;;;;5000285;28;20094;-70
2022/08/31 04:31:25;;;;;;;15.10;5.10;;;26.30;99.90;;;;;;5001179;28;20065;-70
2022/08/31 04:33:52;;;;;;;11.60;4.15;;;26.30;99.90;;;;;;4981566;28;20092;-72
2022/08/31 04:36:21;;;;;;;11.40;5.20;;;26.40;99.90;;;;;;5001091;28;20033;-69
2022/08/31 04:38:50;;;;;;;13.48;4.65;;;26.40;99.90;;;;;;4986891;28;20525;-70
2022/08/31 04:41:19;;;;;;;13.65;4.95;;;26.40;99.90;;;;;;5003784;28;20041;-71
2022/08/31 04:43:48;;;;;;;13.75;5.15;;;26.40;99.90;;;;;;4997127;28;20061;-70
2022/08/31 04:46:16;;;;;;;8.45;4.53;;;26.50;99.90;;;;;;4985172;28;20936;-69
2022/08/31 04:48:42;;;;;;;11.32;5.53;;;26.50;99.90;;;;;;4989417;28;20038;-71
2022/08/31 04:51:17;;;;;;;10.27;5.22;;;26.50;99.90;;;;;;4982188;28;20497;-70
2022/08/31 04:53:44;;;;;;;14.30;6.55;;;26.50;99.90;;;;;;4993437;28;20074;-70
2022/08/31 04:56:17;;;;;;;10.05;6.20;;;26.50;99.90;;;;;;5000535;28;20038;-71
2022/08/31 04:58:46;;;;;;;12.75;6.20;;;26.40;99.90;;;;;;5001271;28;20036;-72
2022/08/31 05:01:16;;;;;;;8.68;5.63;;;26.40;99.90;;;;;;5001346;28;20041;-69
2022/08/31 05:03:42;;;;;;;12.63;5.63;;;26.40;99.90;;;;;;5003657;28;20030;-72
2022/08/31 05:06:14;;;;;;;9.80;5.43;;;26.40;99.90;;;;;;4986799;28;20053;-71
2022/08/31 05:08:40;;;;;;;12.63;5.22;;;26.40;99.90;;;;;;4981694;28;20053;-71
2022/08/31 05:11:10;;;;;;;13.07;4.90;;;26.40;99.90;;;;;;5000611;28;20499;-72
2022/08/31 05:13:36;;;;;;;13.38;4.22;;;26.40;99.90;;;;;;4984714;28;20667;-70
2022/08/31 05:16:04;;;;;;;11.52;4.45;;;26.40;99.90;;;;;;4999369;28;20103;-70
2022/08/31 05:18:30;;;;;;;11.07;3.90;;;26.40;99.90;;;;;;4988220;28;20093;-71
2022/08/31 05:20:56;;;;;;;10.88;3.88;;;26.40;99.90;;;;;;4999933;28;20447;-70
2022/08/31 05:23:22;;;;;;;14.48;6.22;;;26.40;99.90;;;;;;4982722;28;20038;-70
2022/08/31 05:25:47;;;;;;;11.70;4.70;;;26.40;99.90;;;;;;5003080;28;20038;-70
2022/08/31 05:28:14;;;;;;;11.48;4.60;;;26.40;99.90;;;;;;4978440;28;20117;-70
2022/08/31 05:30:43;;;;;;;10.75;4.40;;;26.30;99.90;;;;;;5004422;28;20894;-71
2022/08/31 05:33:09;;;;;;;12.85;5.47;;;26.20;99.90;;;;;;4998589;28;20080;-70
2022/08/31 05:35:36;;;;;;;7.93;4.60;;;26.00;99.90;;;;;;5003753;28;20026;-70
2022/08/31 05:38:03;;;;;;;9.25;4.38;;;26.00;99.90;;;;;;4985690;28;20103;-70
2022/08/31 05:40:28;;;;;;;15.10;5.32;;;26.00;99.90;;;;;;4988778;28;20026;-69
2022/08/31 05:42:58;;;;;;;11.27;6.57;;;25.90;99.90;;;;;;5003390;28;20030;-70
2022/08/31 05:45:24;;;;;;;11.77;6.50;;;25.80;99.90;;;;;;4996613;28;20378;-70
2022/08/31 05:47:49;;;;;;;14.77;7.45;;;25.70;99.90;;;;;;5003276;28;20030;-69
2022/08/31 05:50:17;;;;;;;12.77;6.32;;;25.60;99.90;;;;;;4982376;28;20470;-70
2022/08/31 05:52:43;;;;;;;16.48;7.70;;;25.50;99.90;;;;;;4984755;28;20030;-68
2022/08/31 05:55:10;;;;;;;11.10;7.30;;;25.40;99.90;;;;;;5000145;28;20092;-70
2022/08/31 05:57:39;;;;;;;15.40;7.63;;;25.30;99.90;;;;;;4983370;28;20034;-68
2022/08/31 06:00:06;;;;;;;13.13;6.93;;;25.20;99.90;;;;;;4989851;28;20121;-69
2022/08/31 06:02:32;;;;;;;14.32;8.30;;;25.10;99.90;;;;;;4999892;28;20523;-70
2022/08/31 06:04:58;;;;;;;13.77;9.50;;;25.10;99.90;;;;;;4989983;28;20028;-70
2022/08/31 06:07:24;;;;;;;28.27;9.38;;;25.00;99.90;;;;;;5001789;28;20019;-69
2022/08/31 06:09:50;;;;;;;19.70;10.52;;;24.80;99.90;;;;;;4999895;28;20600;-69
2022/08/31 06:12:18;;;;;;;16.88;9.90;;;24.60;99.90;;;;;;4995683;28;20035;-69
2022/08/31 06:14:44;;;;;;;13.80;10.13;;;24.50;99.90;;;;;;4983819;28;20026;-68
2022/08/31 06:17:10;;;;;;;20.88;9.07;;;24.40;99.90;;;;;;4986347;28;20098;-70
2022/08/31 06:19:37;;;;;;;12.13;8.73;;;24.30;99.90;;;;;;5000045;28;20112;-69
2022/08/31 06:22:04;;;;;;;15.07;8.55;;;24.20;99.90;;;;;;4983435;28;20061;-69
2022/08/31 06:24:29;;;;;;;11.68;8.23;;;24.00;99.90;;;;;;4998922;28;20113;-69
2022/08/31 06:26:56;;;;;;;16.27;8.38;;;23.90;99.90;;;;;;4998410;28;20121;-69
2022/08/31 06:29:22;;;;;;;17.25;9.45;;;24.00;99.90;;;;;;4996503;28;20053;-69
2022/08/31 06:31:48;;;;;;;17.95;9.65;;;23.90;99.90;;;;;;5000075;28;20026;-69
2022/08/31 06:34:15;;;;;;;15.90;8.52;;;24.00;99.90;;;;;;5003130;28;20390;-69
2022/08/31 06:36:41;;;;;;;14.68;9.07;;;23.90;99.90;;;;;;5002812;28;20327;-68
2022/08/31 06:39:07;;;;;;;13.73;9.20;;;23.90;99.90;;;;;;5008018;28;20596;-69
2022/08/31 06:41:36;;;;;;;19.70;9.48;;;23.90;99.90;;;;;;5000114;28;20038;-69
2022/08/31 06:44:04;;;;;;;17.05;9.93;;;23.70;99.90;;;;;;5001330;28;20579;-69
2022/08/31 06:46:32;;;;;;;16.92;9.10;;;23.70;99.90;;;;;;5001040;28;20026;-69
2022/08/31 06:48:58;;;;;;;26.88;11.20;;;23.70;99.90;;;;;;4981633;28;20033;-69
2022/08/31 06:51:24;;;;;;;21.85;10.52;;;23.70;99.90;;;;;;4980638;28;20049;-69
2022/08/31 06:53:51;;;;;;;18.38;9.40;;;23.60;99.90;;;;;;4997823;28;20095;-69
2022/08/31 06:56:19;;;;;;;20.38;10.20;;;23.60;99.90;;;;;;4984169;28;20030;-69
2022/08/31 06:58:46;;;;;;;18.10;10.27;;;23.60;99.90;;;;;;5000434;28;20030;-69
2022/08/31 07:01:15;;;;;;;13.18;9.05;;;23.50;99.90;;;;;;4986338;28;20121;-69
2022/08/31 07:03:43;;;;;;;15.88;10.40;;;23.40;99.90;;;;;;4997192;28;20433;-68
2022/08/31 07:06:13;;;;;;;17.88;10.00;;;23.10;99.90;;;;;;4996844;28;20588;-69
2022/08/31 07:08:40;;;;;;;11.52;7.30;;;23.20;99.90;;;;;;4997294;28;20034;-69
2022/08/31 07:11:19;;;;;;;16.10;7.90;;;23.10;99.90;;;;;;4998974;28;20030;-70
2022/08/31 07:13:46;;;;;;;16.25;3.78;;;22.50;99.90;;;;;;4998541;28;20026;-71
2022/08/31 07:16:14;;;;;;;9.20;3.35;;;21.80;99.90;;;;;;4982037;28;20037;-70
2022/08/31 07:18:42;;;;;;;10.02;2.17;;;20.70;99.90;;;;;;4983530;28;20038;-71
2022/08/31 07:21:12;;;;;;;35.40;4.25;;;21.20;99.90;;;;;;4997753;28;20429;-72
2022/08/31 07:23:38;;;;;;;15.77;1.90;;;20.00;99.90;;;;;;4997003;28;20037;-71
2022/08/31 07:26:10;;;;;;;16.33;2.15;;;20.50;99.90;;;;;;4976858;28;20560;-71
2022/08/31 07:28:37;;;;;;;23.17;2.78;;;19.90;99.90;;;;;;4981182;28;20492;-71
2022/08/31 07:31:04;;;;;;;73.43;5.30;;;20.60;99.90;;;;;;4984519;28;20116;-70
2022/08/31 07:33:37;;;;;;;75.80;6.75;;;21.00;99.90;;;;;;4997929;28;20393;-70
2022/08/31 07:36:14;;;;;;;12.57;3.55;;;21.20;99.90;;;;;;4985931;28;20049;-70
2022/08/31 07:44:10;;;;;;;5.65;1.73;;;21.10;99.90;;;;;;5000961;28;20092;-70
2022/08/31 07:46:37;;;;;;;5.70;1.90;;;21.10;99.90;;;;;;5003612;28;20034;-70
2022/08/31 07:49:11;;;;;;;2.15;1.02;;;20.90;99.90;;;;;;4990548;28;20069;-70
2022/08/31 07:51:49;;;;;;;3.40;1.10;;;20.90;99.90;;;;;;4983086;28;20034;-70
2022/08/31 07:54:20;;;;;;;3.53;1.60;;;20.80;99.90;;;;;;5001542;28;20034;-70
2022/08/31 07:56:49;;;;;;;2.88;0.95;;;21.20;99.90;;;;;;5003698;28;20120;-70
2022/08/31 07:59:18;;;;;;;4.43;1.80;;;21.00;99.90;;;;;;5002991;28;20049;-71
2022/08/31 08:01:44;;;;;;;4.40;1.10;;;20.90;99.90;;;;;;4985365;28;20147;-71
2022/08/31 08:04:20;;;;;;;7.07;1.48;;;21.20;99.90;;;;;;5003313;28;20129;-71
2022/08/31 08:06:47;;;;;;;2.78;1.20;;;20.90;99.90;;;;;;4983320;28;20038;-71
2022/08/31 08:09:14;;;;;;;5.65;1.30;;;20.70;99.90;;;;;;4991065;28;20038;-71
2022/08/31 08:11:44;;;;;;;4.53;1.10;;;20.80;99.90;;;;;;5001651;28;20033;-70
2022/08/31 08:14:11;;;;;;;3.22;1.25;;;21.10;99.90;;;;;;4981088;28;20564;-72
2022/08/31 08:16:37;;;;;;;2.35;1.08;;;21.10;99.90;;;;;;4998785;28;20046;-71
2022/08/31 08:19:04;;;;;;;3.92;1.30;;;21.20;99.90;;;;;;4985538;28;20053;-70
2022/08/31 08:21:30;;;;;;;6.13;1.55;;;20.60;99.90;;;;;;5005216;28;20068;-71
2022/08/31 08:23:56;;;;;;;3.17;1.10;;;20.30;99.90;;;;;;5004855;28;20362;-70
2022/08/31 08:26:22;;;;;;;2.05;1.30;;;20.60;99.90;;;;;;4989690;28;20128;-71
2022/08/31 08:28:48;;;;;;;4.78;1.48;;;21.20;99.90;;;;;;4989820;28;20037;-70
2022/08/31 08:31:17;;;;;;;2.85;0.90;;;20.60;99.90;;;;;;5001679;28;20033;-70
2022/08/31 08:33:44;;;;;;;4.70;1.02;;;20.50;99.90;;;;;;4998358;28;20057;-70
2022/08/31 08:36:11;;;;;;;4.38;1.63;;;20.60;99.90;;;;;;4993229;28;20133;-70
2022/08/31 08:38:41;;;;;;;3.75;1.30;;;20.90;99.90;;;;;;4999795;28;20049;-70
2022/08/31 08:41:21;;;;;;;6.38;1.60;;;20.50;99.90;;;;;;4996762;28;20084;-71
2022/08/31 08:43:53;;;;;;;5.70;1.55;;;21.10;99.90;;;;;;4996761;28;20073;-70
2022/08/31 08:46:38;;;;;;;5.90;1.55;;;21.40;99.90;;;;;;4995238;28;20038;-70
2022/08/31 08:49:27;;;;;;;4.15;1.50;;;21.20;99.90;;;;;;4994259;28;20042;-70
2022/08/31 08:51:57;;;;;;;4.57;1.60;;;21.10;99.90;;;;;;4978383;28;20045;-69
2022/08/31 08:54:33;;;;;;;4.28;1.15;;;21.30;99.90;;;;;;4994377;28;20037;-72
2022/08/31 08:57:02;;;;;;;3.53;1.67;;;20.90;99.90;;;;;;4979879;28;20111;-70
2022/08/31 08:59:28;;;;;;;4.35;1.27;;;21.40;99.90;;;;;;4979177;28;20102;-72
2022/08/31 09:02:05;;;;;;;7.97;1.73;;;21.30;99.90;;;;;;4984384;28;20139;-71
2022/08/31 09:05:05;;;;;;;4.35;1.38;;;21.00;99.90;;;;;;4977690;28;20568;-70
2022/08/31 09:08:16;;;;;;;6.10;1.70;;;20.90;99.90;;;;;;4995273;28;20533;-70
2022/08/31 09:10:50;;;;;;;3.28;1.25;;;20.90;99.90;;;;;;4991199;28;20055;-71
2022/08/31 09:13:30;;;;;;;4.63;1.35;;;20.80;99.90;;;;;;4999411;28;20085;-70
2022/08/31 09:16:16;;;;;;;5.35;1.58;;;20.90;99.90;;;;;;4995917;28;20105;-71
2022/08/31 09:19:02;;;;;;;5.68;1.33;;;21.10;99.90;;;;;;4993720;28;20054;-71
2022/08/31 09:21:36;;;;;;;5.00;1.73;;;20.90;99.90;;;;;;4990722;28;20034;-71
2022/08/31 09:24:20;;;;;;;7.90;1.38;;;21.30;99.90;;;;;;4997550;28;20052;-71
2022/08/31 09:27:18;;;;;;;8.90;1.88;;;21.40;99.90;;;;;;4994336;28;20068;-70
2022/08/31 09:29:46;;;;;;;7.78;1.65;;;21.70;99.90;;;;;;4994004;28;20511;-70
2022/08/31 09:32:22;;;;;;;3.25;1.58;;;21.40;99.90;;;;;;4977203;28;20132;-71
2022/08/31 09:35:27;;;;;;;4.30;1.75;;;21.30;99.90;;;;;;4992879;28;20670;-71
2022/08/31 09:38:08;;;;;;;2.92;1.50;;;21.50;99.90;;;;;;4976567;28;20481;-71
2022/08/31 09:40:41;;;;;;;7.28;2.00;;;21.50;99.90;;;;;;4974920;28;20041;-71
2022/08/31 09:43:21;;;;;;;6.00;1.83;;;21.80;99.90;;;;;;4975866;28;20102;-71
2022/08/31 09:46:24;;;;;;;5.50;2.30;;;21.90;99.90;;;;;;4994581;28;20450;-70
2022/08/31 09:48:55;;;;;;;7.85;2.40;;;22.00;99.90;;;;;;4992583;28;20061;-72
2022/08/31 09:51:24;;;;;;;6.68;2.42;;;22.20;99.90;;;;;;4979344;28;20034;-70
2022/08/31 09:56:55;;;;;;;5.05;2.03;;;22.50;99.90;;;;;;4996767;28;20084;-71
2022/08/31 09:59:38;;;;;;;7.78;2.53;;;22.50;99.90;;;;;;4996639;28;20493;-71
2022/08/31 10:02:21;;;;;;;4.68;1.90;;;22.40;99.90;;;;;;4993590;28;20061;-70
2022/08/31 10:04:53;;;;;;;5.88;2.40;;;22.40;99.90;;;;;;4989552;28;20038;-71
2022/08/31 10:07:40;;;;;;;7.35;2.38;;;22.20;99.90;;;;;;4987845;28;20916;-71
2022/08/31 10:10:15;;;;;;;7.47;2.30;;;22.50;99.90;;;;;;4994180;28;20045;-71
2022/08/31 10:13:00;;;;;;;7.22;2.65;;;22.70;99.90;;;;;;4972821;28;21015;-71
2022/08/31 10:15:59;;;;;;;6.93;2.30;;;22.70;99.90;;;;;;4991950;28;20038;-71
2022/08/31 10:18:42;;;;;;;6.28;2.15;;;22.90;99.90;;;;;;4963914;28;20457;-72
2022/08/31 10:21:12;;;;;;;6.32;2.30;;;23.20;99.90;;;;;;4977295;28;20045;-71
2022/08/31 10:23:53;;;;;;;6.05;2.10;;;23.00;99.90;;;;;;4993086;28;20528;-72
2022/08/31 10:26:41;;;;;;;5.97;2.08;;;23.40;99.90;;;;;;4990488;28;20046;-70
2022/08/31 10:29:16;;;;;;;7.63;2.42;;;23.40;99.90;;;;;;4991707;28;20042;-70
2022/08/31 10:31:51;;;;;;;6.30;2.30;;;23.60;99.90;;;;;;4996120;28;20052;-71
2022/08/31 10:37:19;;;;;;;8.95;2.72;;;24.40;99.90;;;;;;4990726;28;20059;-71
2022/08/31 10:39:49;;;;;;;7.03;2.80;;;24.70;99.90;;;;;;4992780;28;20046;-71
2022/08/31 10:42:22;;;;;;;6.15;2.33;;;24.60;99.90;;;;;;4979889;28;20037;-71
2022/08/31 10:44:56;;;;;;;5.05;2.90;;;25.00;99.90;;;;;;4991148;28;20046;-70
2022/08/31 10:47:24;;;;;;;5.47;2.70;;;25.20;99.90;;;;;;4987850;28;20042;-72
2022/08/31 10:49:58;;;;;;;6.45;2.70;;;25.50;99.90;;;;;;4991931;28;20099;-72
2022/08/31 10:52:50;;;;;;;9.07;2.95;;;26.20;99.90;;;;;;4977129;28;20041;-72
2022/08/31 10:55:36;;;;;;;6.45;3.13;;;26.60;99.90;;;;;;4989288;28;20454;-72
2022/08/31 10:58:44;;;;;;;7.43;2.92;;;27.10;99.90;;;;;;4976366;28;20077;-73
2022/08/31 11:01:34;;;;;;;7.53;3.10;;;27.30;99.90;;;;;;4991764;28;20064;-73
2022/08/31 11:04:28;;;;;;;7.35;3.00;;;27.30;99.90;;;;;;4994710;28;20052;-73
2022/08/31 11:07:06;;;;;;;8.20;2.97;;;27.70;99.90;;;;;;4996155;28;20431;-74
2022/08/31 11:09:57;;;;;;;8.55;3.20;;;29.40;99.90;;;;;;4995274;28;20117;-72
2022/08/31 11:12:29;;;;;;;7.38;2.90;;;30.60;99.90;;;;;;4991231;28;20125;-72
2022/08/31 11:15:10;;;;;;;8.32;3.03;;;31.00;99.90;;;;;;4983072;28;20057;-73
2022/08/31 11:17:43;;;;;;;10.03;3.37;;;30.50;99.90;;;;;;4994561;28;20536;-73
2022/08/31 11:20:50;;;;;;;6.88;3.22;;;30.50;99.90;;;;;;4997553;28;20042;-73
2022/08/31 11:23:35;;;;;;;7.72;2.75;;;30.70;99.90;;;;;;4988528;28;20046;-73
2022/08/31 11:26:05;;;;;;;7.22;3.30;;;30.80;99.90;;;;;;4999191;28;20045;-73
2022/08/31 11:29:08;;;;;;;6.57;2.97;;;30.90;99.90;;;;;;4998425;28;20030;-72
2022/08/31 11:31:37;;;;;;;6.20;3.08;;;30.80;99.90;;;;;;4965952;28;20038;-72
2022/08/31 11:34:24;;;;;;;11.73;3.00;;;30.60;99.90;;;;;;4977111;28;20041;-73
2022/08/31 11:36:59;;;;;;;8.27;3.10;;;30.40;99.90;;;;;;4998019;28;20112;-73
2022/08/31 11:39:36;;;;;;;10.93;3.25;;;30.50;99.90;;;;;;4991791;28;20042;-73
2022/08/31 11:42:11;;;;;;;6.38;3.40;;;30.70;99.90;;;;;;4994838;28;20398;-73
2022/08/31 11:44:38;;;;;;;7.63;3.15;;;30.60;99.90;;;;;;4993351;28;20049;-73
2022/08/31 11:47:28;;;;;;;5.97;3.00;;;31.50;99.90;;;;;;4999006;28;20065;-72
2022/08/31 11:49:56;;;;;;;6.82;3.25;;;32.10;99.90;;;;;;4995116;28;20509;-73
2022/08/31 11:52:28;;;;;;;5.63;3.13;;;32.50;99.90;;;;;;4981364;28;20553;-73
2022/08/31 11:55:15;;;;;;;8.75;2.92;;;32.60;99.90;;;;;;4980376;28;20503;-72
2022/08/31 11:58:06;;;;;;;9.30;3.70;;;32.80;99.90;;;;;;4998456;28;20042;-73
2022/08/31 12:01:00;;;;;;;6.23;3.37;;;33.10;99.90;;;;;;4998754;28;20065;-73
2022/08/31 12:03:37;;;;;;;8.43;3.60;;;33.50;99.90;;;;;;5002615;28;20615;-72
2022/08/31 12:06:07;;;;;;;6.38;3.53;;;33.20;99.90;;;;;;5001571;28;20041;-72
2022/08/31 12:08:51;;;;;;;9.25;4.18;;;33.30;99.90;;;;;;4999391;28;20030;-73
2022/08/31 12:11:31;;;;;;;9.88;3.50;;;33.50;99.90;;;;;;4991101;28;20042;-72
2022/08/31 12:14:03;;;;;;;6.03;2.90;;;33.80;99.90;;;;;;5002214;28;20481;-74
2022/08/31 12:17:01;;;;;;;8.90;4.22;;;34.20;99.90;;;;;;4980646;28;20026;-72
2022/08/31 12:19:59;;;;;;;6.32;3.25;;;34.30;99.90;;;;;;4989110;28;20042;-74
2022/08/31 12:25:38;;;;;;;5.32;3.10;;;34.40;99.90;;;;;;4998544;28;20107;-73
2022/08/31 12:28:30;;;;;;;6.03;3.13;;;34.80;99.90;;;;;;4994652;28;20054;-72
2022/08/31 12:31:06;;;;;;;6.53;3.05;;;34.70;99.90;;;;;;4989741;28;20026;-72
2022/08/31 12:33:32;;;;;;;8.90;3.72;;;34.90;99.90;;;;;;4999384;28;20065;-73
2022/08/31 12:36:29;;;;;;;6.00;3.10;;;35.30;99.90;;;;;;5003089;28;20378;-73
2022/08/31 12:39:06;;;;;;;6.70;2.67;;;35.30;99.90;;;;;;4994722;28;20125;-72
2022/08/31 12:41:33;;;;;;;6.05;2.53;;;35.70;99.90;;;;;;4999984;28;20026;-72
2022/08/31 12:43:59;;;;;;;7.25;2.70;;;35.90;99.90;;;;;;4990379;28;20041;-73
2022/08/31 12:46:38;;;;;;;5.28;2.55;;;35.90;99.90;;;;;;5002106;28;20038;-72
2022/08/31 12:49:24;;;;;;;5.28;2.40;;;35.60;99.90;;;;;;5001331;28;20449;-74
2022/08/31 12:52:04;;;;;;;6.60;2.20;;;35.70;99.90;;;;;;4999183;28;20037;-73
2022/08/31 12:54:58;;;;;;;6.03;2.30;;;36.20;99.50;;;;;;4984180;28;20034;-72
2022/08/31 12:58:05;;;;;;;6.22;2.42;;;36.40;98.30;;;;;;4998217;28;20034;-73
2022/08/31 13:00:34;;;;;;;6.05;2.10;;;36.50;97.40;;;;;;4942204;28;20032;-73
2022/08/31 13:03:14;;;;;;;5.22;2.00;;;36.80;97.10;;;;;;4976815;28;20572;-72
2022/08/31 13:05:39;;;;;;;6.95;2.38;;;36.50;96.90;;;;;;5001598;28;21175;-73
2022/08/31 13:08:20;;;;;;;5.72;2.20;;;36.90;97.30;;;;;;4999505;28;20050;-73
2022/08/31 13:10:46;;;;;;;;;;;37.10;97.40;;;;;;5001795;28;20030;-73
2022/08/31 13:13:24;;;;;;;4.85;2.15;;;37.30;95.60;;;;;;5001460;28;19916;-73
2022/08/31 13:15:56;;;;;;;7.10;2.38;;;37.40;95.70;;;;;;5000578;28;20034;-72
2022/08/31 13:18:27;;;;;;;6.13;2.17;;;37.60;95.80;;;;;;4978503;28;22770;-72
2022/08/31 13:21:05;;;;;;;6.90;2.13;;;37.60;96.00;;;;;;4998253;28;20026;-72
2022/08/31 13:23:41;;;;;;;6.30;1.77;;;37.40;94.50;;;;;;5001113;28;20046;-73